createdAt,value
2023-02-16T00:04:29.336Z,3.10
2023-02-16T00:06:57.392Z,3.10
2023-02-16T00:09:24.755Z,3.00
2023-02-16T00:12:11.646Z,3.00
2023-02-16T00:14:39.531Z,2.80
2023-02-16T00:17:06.752Z,3.00
2023-02-16T00:19:38.728Z,3.00
2023-02-16T00:22:07.627Z,3.00
2023-02-16T00:24:34.928Z,3.40
2023-02-16T00:29:31.512Z,2.90
2023-02-16T00:32:00.526Z,2.80
2023-02-16T00:34:53.366Z,2.90
2023-02-16T00:39:48.647Z,2.90
2023-02-16T00:42:25.528Z,2.80
2023-02-16T00:44:56.221Z,2.70
2023-02-16T00:47:28.863Z,2.80
2023-02-16T00:52:28.317Z,2.80
2023-02-16T01:00:00.372Z,2.80
2023-02-16T01:10:29.743Z,2.70
2023-02-16T01:15:25.802Z,2.70
2023-02-16T01:20:25.147Z,2.60
2023-02-16T01:27:48.321Z,2.50
2023-02-16T01:30:18.896Z,2.50
2023-02-16T01:35:33.442Z,2.40
2023-02-16T01:38:00.623Z,2.40
2023-02-16T01:40:32.899Z,2.40
2023-02-16T01:43:30.295Z,2.40
2023-02-16T01:46:05.928Z,2.30
2023-02-16T01:51:07.044Z,2.30
2023-02-16T01:53:42.703Z,2.30
2023-02-16T01:56:18.775Z,2.30
2023-02-16T01:58:54.263Z,2.20
2023-02-16T02:01:44.182Z,2.20
2023-02-16T02:04:38.705Z,2.20
2023-02-16T02:09:43.041Z,2.20
2023-02-16T02:12:49.418Z,2.30
2023-02-16T02:15:19.967Z,2.20
2023-02-16T02:20:56.572Z,2.10
2023-02-16T02:23:50.993Z,2.10
2023-02-16T02:26:49.658Z,2.10
2023-02-16T02:29:44.756Z,2.10
2023-02-16T02:32:39.721Z,2.00
2023-02-16T02:35:51.438Z,1.90
2023-02-16T02:38:42.272Z,1.90
2023-02-16T02:41:20.601Z,1.70
2023-02-16T02:44:00.206Z,1.90
2023-02-16T02:46:33.794Z,1.80
2023-02-16T02:54:34.340Z,1.80
2023-02-16T02:57:45.915Z,1.80
2023-02-16T03:00:43.915Z,1.80
2023-02-16T03:03:31.919Z,1.80
2023-02-16T03:06:16.970Z,2.40
2023-02-16T03:08:47.996Z,1.80
2023-02-16T03:11:40.100Z,1.80
2023-02-16T03:14:14.959Z,1.80
2023-02-16T03:16:45.085Z,1.70
2023-02-16T03:19:34.058Z,1.80
2023-02-16T03:22:20.102Z,1.80
2023-02-16T03:27:57.134Z,1.90
2023-02-16T03:30:26.027Z,1.90
2023-02-16T03:35:20.791Z,1.90
2023-02-16T03:37:47.937Z,1.80
2023-02-16T03:40:29.345Z,1.90
2023-02-16T03:43:07.536Z,1.80
2023-02-16T03:45:37.401Z,1.70
2023-02-16T03:55:45.243Z,1.50
2023-02-16T03:58:15.457Z,1.50
2023-02-16T04:10:31.144Z,1.30
2023-02-16T04:12:57.809Z,1.40
2023-02-16T04:15:27.197Z,1.40
2023-02-16T04:20:24.232Z,1.40
2023-02-16T04:30:15.900Z,1.40
2023-02-16T04:49:55.328Z,1.40
2023-02-16T04:54:49.180Z,1.40
2023-02-16T05:17:21.236Z,1.70
2023-02-16T05:19:50.914Z,1.70
2023-02-16T05:22:18.374Z,1.70
2023-02-16T05:27:24.415Z,1.80
2023-02-16T05:34:45.736Z,1.90
2023-02-16T05:37:13.499Z,1.90
2023-02-16T05:56:51.991Z,2.10
2023-02-16T06:14:17.538Z,2.20
2023-02-16T06:16:47.174Z,2.10
2023-02-16T06:19:16.362Z,2.10
2023-02-16T06:21:43.278Z,2.10
2023-02-16T06:24:11.674Z,2.10
2023-02-16T06:26:38.324Z,2.10
2023-02-16T06:29:05.604Z,2.10
2023-02-16T06:44:04.849Z,2.20
2023-02-16T06:56:20.571Z,2.30
2023-02-16T06:58:47.564Z,2.20
2023-02-16T07:08:35.958Z,2.30
2023-02-16T07:30:40.160Z,2.50
2023-02-16T07:35:35.761Z,2.60
2023-02-16T07:38:03.205Z,2.70
2023-02-16T07:40:29.871Z,2.80
2023-02-16T07:43:00.128Z,2.80
2023-02-16T07:45:27.137Z,2.80
2023-02-16T08:00:10.078Z,3.20
2023-02-16T08:02:40.300Z,3.20
2023-02-16T08:19:50.335Z,4.00
2023-02-16T08:22:18.186Z,4.10
2023-02-16T08:29:39.093Z,4.50
2023-02-16T08:34:35.226Z,4.60
2023-02-16T08:39:31.658Z,4.90
2023-02-16T08:41:59.765Z,4.90
2023-02-16T08:44:27.932Z,5.10
2023-02-16T08:46:58.658Z,5.20
2023-02-16T08:49:25.945Z,4.80
2023-02-16T08:51:55.418Z,5.30
2023-02-16T08:54:29.862Z,5.40
2023-02-16T08:56:58.788Z,5.50
2023-02-16T08:59:28.332Z,5.50
2023-02-16T09:04:24.361Z,5.70
2023-02-16T09:06:52.323Z,5.80
2023-02-16T09:09:20.103Z,5.80
2023-02-16T09:11:47.216Z,5.90
2023-02-16T09:14:15.412Z,6.00
2023-02-16T09:19:14.956Z,6.20
2023-02-16T09:21:42.296Z,6.30
2023-02-16T09:24:11.440Z,6.30
2023-02-16T09:26:42.596Z,6.40
2023-02-16T09:29:12.173Z,6.50
2023-02-16T09:34:20.227Z,6.70
2023-02-16T09:39:14.701Z,6.80
2023-02-16T09:44:33.117Z,7.00
2023-02-16T09:47:04.749Z,7.00
2023-02-16T09:49:41.004Z,7.10
2023-02-16T09:52:37.206Z,7.20
2023-02-16T09:55:13.299Z,7.30
2023-02-16T09:58:04.208Z,7.30
2023-02-16T10:00:33.845Z,7.30
2023-02-16T10:03:06.504Z,7.40
2023-02-16T10:05:52.895Z,7.50
2023-02-16T10:08:32.391Z,7.50
2023-02-16T10:11:41.609Z,7.60
2023-02-16T10:14:14.747Z,7.60
2023-02-16T10:16:46.662Z,7.80
2023-02-16T10:19:21.995Z,7.90
2023-02-16T10:21:53.893Z,7.90
2023-02-16T10:27:02.468Z,8.10
2023-02-16T10:29:29.374Z,8.10
2023-02-16T10:31:58.829Z,8.20
2023-02-16T10:34:40.426Z,8.30
2023-02-16T10:37:20.079Z,8.30
2023-02-16T10:40:23.147Z,8.40
2023-02-16T10:42:59.352Z,8.50
2023-02-16T10:50:27.615Z,8.80
2023-02-16T10:53:17.460Z,8.90
2023-02-16T10:55:44.290Z,9.00
2023-02-16T10:58:26.899Z,9.00
2023-02-16T11:01:00.914Z,9.10
2023-02-16T11:03:33.308Z,11.90
2023-02-16T11:06:18.116Z,9.20
2023-02-16T11:08:50.892Z,9.30
2023-02-16T11:13:49.037Z,9.40
2023-02-16T11:16:26.453Z,9.40
2023-02-16T11:19:21.588Z,9.60
2023-02-16T11:21:50.830Z,9.60
2023-02-16T11:24:28.150Z,9.70
2023-02-16T11:27:05.590Z,9.80
2023-02-16T11:32:04.641Z,9.90
2023-02-16T11:34:52.409Z,9.90
2023-02-16T11:37:32.976Z,10.00
2023-02-16T11:40:04.284Z,10.10
2023-02-16T11:42:47.006Z,10.10
2023-02-16T11:45:33.656Z,10.20
2023-02-16T11:48:12.149Z,10.20
2023-02-16T11:50:54.654Z,10.20
2023-02-16T11:53:27.841Z,10.40
2023-02-16T11:56:12.814Z,10.40
2023-02-16T11:58:40.164Z,9.80
2023-02-16T12:01:25.772Z,10.60
2023-02-16T12:04:22.330Z,10.70
2023-02-16T12:07:03.653Z,10.70
2023-02-16T12:12:12.738Z,10.80
2023-02-16T12:15:17.132Z,10.80
2023-02-16T12:18:17.766Z,10.90
2023-02-16T12:21:05.528Z,10.90
2023-02-16T12:23:46.931Z,10.90
2023-02-16T12:26:38.208Z,11.00
2023-02-16T12:29:26.647Z,11.00
2023-02-16T12:32:02.266Z,11.00
2023-02-16T12:34:43.769Z,11.00
2023-02-16T12:37:36.783Z,10.90
2023-02-16T12:40:16.670Z,10.90
2023-02-16T12:43:03.180Z,10.90
2023-02-16T12:45:36.517Z,11.40
2023-02-16T12:48:36.820Z,10.90
2023-02-16T12:51:10.270Z,10.90
2023-02-16T12:53:50.823Z,10.90
2023-02-16T12:56:25.013Z,10.90
2023-02-16T12:59:00.418Z,10.90
2023-02-16T13:01:32.805Z,10.90
2023-02-16T13:04:36.165Z,10.80
2023-02-16T13:07:18.128Z,10.80
2023-02-16T13:10:10.062Z,10.90
2023-02-16T13:12:47.120Z,10.80
2023-02-16T13:15:18.257Z,10.90
2023-02-16T13:17:58.429Z,10.90
2023-02-16T13:23:11.372Z,11.00
2023-02-16T13:28:37.082Z,11.00
2023-02-16T13:31:29.315Z,11.00
2023-02-16T13:34:42.329Z,11.00
2023-02-16T13:37:34.376Z,11.00
2023-02-16T13:42:53.740Z,10.90
2023-02-16T13:45:28.128Z,10.90
2023-02-16T13:47:56.598Z,10.90
2023-02-16T13:52:52.557Z,10.80
2023-02-16T13:55:34.651Z,10.70
2023-02-16T13:58:18.069Z,10.60
2023-02-16T14:00:47.637Z,10.50
2023-02-16T14:03:17.460Z,10.50
2023-02-16T14:05:46.916Z,10.50
2023-02-16T14:08:30.858Z,10.40
2023-02-16T14:11:03.855Z,10.40
2023-02-16T14:13:42.443Z,10.50
2023-02-16T14:16:18.443Z,10.60
2023-02-16T14:19:16.546Z,10.70
2023-02-16T14:21:46.610Z,10.50
2023-02-16T14:24:24.936Z,10.70
2023-02-16T14:26:59.309Z,10.70
2023-02-16T14:29:40.765Z,10.70
2023-02-16T14:32:13.646Z,13.10
2023-02-16T14:34:46.505Z,10.60
2023-02-16T14:37:16.190Z,10.60
2023-02-16T14:40:06.870Z,10.70
2023-02-16T14:42:35.700Z,10.70
2023-02-16T14:48:04.224Z,10.70
2023-02-16T14:51:00.406Z,10.80
2023-02-16T14:54:08.559Z,10.90
2023-02-16T14:56:45.358Z,10.90
2023-02-16T15:01:41.418Z,11.00
2023-02-16T15:04:10.891Z,10.90
2023-02-16T15:06:45.039Z,10.90
2023-02-16T15:09:20.007Z,11.00
2023-02-16T15:12:22.557Z,11.00
2023-02-16T15:15:01.732Z,11.00
2023-02-16T15:17:39.250Z,11.00
2023-02-16T15:20:28.145Z,11.00
2023-02-16T15:22:57.463Z,11.10
2023-02-16T15:25:33.819Z,11.10
2023-02-16T15:28:12.595Z,11.10
2023-02-16T15:30:48.078Z,11.10
2023-02-16T15:33:34.129Z,11.10
2023-02-16T15:36:07.281Z,11.10
2023-02-16T15:38:37.921Z,11.00
2023-02-16T15:41:15.233Z,11.00
2023-02-16T15:43:50.565Z,11.00
2023-02-16T15:46:36.832Z,11.00
2023-02-16T15:49:25.743Z,11.00
2023-02-16T15:51:55.348Z,10.90
2023-02-16T15:56:51.556Z,11.00
2023-02-16T15:59:43.251Z,11.00
2023-02-16T16:02:19.324Z,11.00
2023-02-16T16:04:58.304Z,11.00
2023-02-16T16:07:32.543Z,10.90
2023-02-16T16:10:00.141Z,10.90
2023-02-16T16:14:57.872Z,10.90
2023-02-16T16:17:33.100Z,10.80
2023-02-16T16:20:25.670Z,10.70
2023-02-16T16:23:01.692Z,10.60
2023-02-16T16:25:36.827Z,10.50
2023-02-16T16:28:06.908Z,10.40
2023-02-16T16:30:35.498Z,10.30
2023-02-16T16:33:08.946Z,11.40
2023-02-16T16:40:35.016Z,10.20
2023-02-16T16:43:04.857Z,10.30
2023-02-16T16:45:48.081Z,10.30
2023-02-16T16:48:28.870Z,10.40
2023-02-16T16:51:33.859Z,10.30
2023-02-16T16:54:23.601Z,10.30
2023-02-16T17:11:37.829Z,10.10
2023-02-16T17:14:19.397Z,10.00
2023-02-16T17:16:50.636Z,10.00
2023-02-16T17:19:22.828Z,10.00
2023-02-16T17:34:05.274Z,10.00
2023-02-16T17:36:32.653Z,10.00
2023-02-16T17:41:28.418Z,9.10
2023-02-16T17:46:22.654Z,9.90
2023-02-16T17:48:51.538Z,9.80
2023-02-16T17:51:19.912Z,9.70
2023-02-16T17:56:15.599Z,9.80
2023-02-16T18:01:13.464Z,9.80
2023-02-16T18:15:57.519Z,9.80
2023-02-16T18:18:24.640Z,9.70
2023-02-16T18:28:20.953Z,9.60
2023-02-16T18:30:50.484Z,9.60
2023-02-16T18:33:18.438Z,9.60
2023-02-16T18:40:41.796Z,9.60
2023-02-16T18:45:39.292Z,9.50
2023-02-16T18:50:33.675Z,9.50
2023-02-16T18:58:07.644Z,9.50
2023-02-16T19:00:36.038Z,9.50
2023-02-16T19:07:57.245Z,9.60
2023-02-16T19:22:45.936Z,9.60
2023-02-16T19:25:13.189Z,9.60
2023-02-16T19:30:07.550Z,9.50
2023-02-16T19:35:01.359Z,9.70
2023-02-16T19:49:44.007Z,9.70
2023-02-16T19:57:07.212Z,9.70
2023-02-16T19:59:33.975Z,9.70
2023-02-16T20:09:23.908Z,9.80
2023-02-16T20:11:51.676Z,9.90
2023-02-16T20:14:18.351Z,9.90
2023-02-16T20:19:12.218Z,9.90
2023-02-16T20:21:40.780Z,9.80
2023-02-16T20:26:38.797Z,9.90
2023-02-16T20:29:08.025Z,11.40
2023-02-16T20:31:46.967Z,9.80
2023-02-16T20:36:40.716Z,9.90
2023-02-16T20:39:08.230Z,9.90
2023-02-16T20:44:27.052Z,9.90
2023-02-16T20:49:20.786Z,9.80
2023-02-16T20:51:47.479Z,9.80
2023-02-16T20:56:41.221Z,9.70
2023-02-16T21:01:43.819Z,9.70
2023-02-16T21:09:06.830Z,9.60
2023-02-16T21:14:02.114Z,9.50
2023-02-16T21:21:23.913Z,9.40
2023-02-16T21:23:53.201Z,9.60
2023-02-16T21:26:22.374Z,9.50
2023-02-16T21:28:49.614Z,9.70
2023-02-16T21:31:20.690Z,9.40
2023-02-16T21:33:48.027Z,9.50
2023-02-16T21:36:20.969Z,9.50
2023-02-16T21:41:24.494Z,10.60
2023-02-16T21:44:18.164Z,9.30
2023-02-16T21:46:46.706Z,9.30
2023-02-16T21:49:20.193Z,9.20
2023-02-16T21:51:48.030Z,9.20
2023-02-16T21:54:16.740Z,9.20
2023-02-16T21:56:50.863Z,9.20
2023-02-16T21:59:19.238Z,9.10
2023-02-16T22:01:50.855Z,9.20
2023-02-16T22:04:21.577Z,9.20
2023-02-16T22:06:50.212Z,9.20
2023-02-16T22:09:20.597Z,9.10
2023-02-16T22:14:14.710Z,9.10
2023-02-16T22:19:12.132Z,9.10
2023-02-16T22:21:41.221Z,9.00
2023-02-16T22:24:10.300Z,9.00
2023-02-16T22:29:06.134Z,9.00
2023-02-16T22:34:03.357Z,9.00
2023-02-16T22:36:30.645Z,9.00
2023-02-16T22:41:25.573Z,9.10
2023-02-16T22:43:54.367Z,9.10
2023-02-16T22:46:22.245Z,9.10
2023-02-16T22:51:16.756Z,9.10
2023-02-16T22:53:43.560Z,9.20
2023-02-16T22:56:14.910Z,9.20
2023-02-16T22:58:41.704Z,9.20
2023-02-16T23:01:13.538Z,9.20
2023-02-16T23:06:15.497Z,9.30
2023-02-16T23:08:43.030Z,9.20
2023-02-16T23:11:09.960Z,9.20
2023-02-16T23:16:09.257Z,9.30
2023-02-16T23:21:14.728Z,9.40
2023-02-16T23:28:37.489Z,9.50
2023-02-16T23:31:04.786Z,9.60
2023-02-16T23:41:01.524Z,9.50
2023-02-16T23:43:28.313Z,9.50
2023-02-16T23:45:55.597Z,9.60
2023-02-16T23:48:23.623Z,9.60
2023-02-16T23:50:51.751Z,9.70
2023-02-16T23:53:19.848Z,9.70
2023-02-16T23:56:07.222Z,9.70
2023-02-16T23:58:36.971Z,9.60
